Impacts TAF Board INFO
FOR SITUATIONAL AWARENESS. NOT TO BE USED FOR FLIGHT PLANNING PURPOSES.
IDs:

KMEM - Memphis Intl, TN, US

Issued at 2059 UTC 17 Dec 2017
Updated at 2119 UTC 17 Dec 2017
Potential Impact None Slight Moderate High
Time<<18/22Z 18/23Z 19/00Z 19/01Z 19/02Z 19/03Z 19/04Z 19/05Z 19/06Z 19/07Z 19/08Z 19/09Z 19/10Z
Type PRVL PRVL
VIS >6 >6
CIG 250 250
Cover BKN BKN
FltCat VFR VFR
WX -- --
WDir 240 240
WSpd 6 6
WGst -- --

Raw TAF
KMEM 172059Z 1721/1824 21004KT P6SM OVC008
  FM180200 VRB03KT 6SM BR OVC007
  FM180600 VRB03KT 4SM BR OVC005
  FM180900 VRB03KT 3SM BR OVC003
  FM181500 22004KT P6SM OVC008
  FM181800 24005KT P6SM SCT010 BKN020
  FM182000 24006KT P6SM SCT020 BKN250


METAR Board
Radar Display
Forecast Discussion

FOR SITUATIONAL AWARENESS. NOT TO BE USED FOR FLIGHT PLANNING PURPOSES.